Fertility, Pennsylvania
Current Conditions -  °F | °C
As of 7:53 AM on Tuesday 21 Oct 2014 (Local Time) from KLNS Reporting Station
Haze Haze  
Wind Chill: 48°   Ceiling: 10000
Heat Index: 48°   Visibility: 3mi
Dew Point: 47°   Wind: 0mph
Humidity: 96%   Direction: NA
Pressure: 29.87"   Gusts: NA
Location:  40.0158°N, 76.2452°W
Report Text: KLNS 211153Z 00000KT 3SM BR BKN100 09/08 A2987 RMK AO2 SLP114 60003 70007 T00890083 10111 20089 53003
Loading
Personal Weather Stations






























Interactive Weather Map
Tropical Storm Tracking
New forecast layout! Learn more

10-Day Weather Forecast

Advertisements
Track Severe Weather on mobile